Palava, Texas
Current Conditions -  °F | °C
As of 4:55 AM on Friday 31 Oct 2014 (Local Time) from KSWW Reporting Station
Clear Clear  
Wind Chill: 11°   Ceiling: Unl
Heat Index: 11°   Visibility: 10mi
Dew Point:   Wind: 6mph
Humidity: 54%   Direction: 350°N
Pressure: 30.34"   Gusts: NA
Location:  32.5104°N, 100.305°W
Report Text: KSWW 310955Z AUTO 35005KT 10SM CLR 11/02 A3034 RMK AO2 T01110021
Loading
Personal Weather Stations






























Interactive Weather Map
Tropical Storm Tracking
New forecast layout! Learn more

10-Day Weather Forecast

Advertisements
Track Severe Weather on mobile